createdAt,value
2023-02-15T00:01:08.336Z,16.63
2023-02-15T00:03:53.278Z,16.70
2023-02-15T00:06:38.687Z,16.87
2023-02-15T00:09:23.958Z,16.97
2023-02-15T00:12:10.244Z,16.80
2023-02-15T00:14:55.428Z,16.23
2023-02-15T00:17:40.762Z,15.80
2023-02-15T00:20:25.809Z,15.33
2023-02-15T00:23:11.179Z,16.53
2023-02-15T00:26:08.048Z,16.63
2023-02-15T00:28:53.711Z,16.03
2023-02-15T00:31:39.321Z,15.93
2023-02-15T00:34:26.474Z,15.77
2023-02-15T00:37:11.512Z,16.13
2023-02-15T00:39:56.869Z,16.60
2023-02-15T00:42:42.214Z,15.67
2023-02-15T00:45:27.053Z,15.37
2023-02-15T00:48:12.698Z,16.07
2023-02-15T00:51:00.531Z,15.27
2023-02-15T00:53:45.865Z,14.10
2023-02-15T00:56:31.272Z,15.27
2023-02-15T00:59:16.478Z,15.90
2023-02-15T01:02:01.922Z,15.60
2023-02-15T01:04:46.953Z,16.40
2023-02-15T01:07:32.244Z,14.43
2023-02-15T01:10:17.606Z,15.40
2023-02-15T01:13:03.560Z,15.77
2023-02-15T01:15:56.068Z,14.70
2023-02-15T01:18:41.468Z,14.63
2023-02-15T01:21:27.233Z,16.37
2023-02-15T01:24:14.300Z,16.00
2023-02-15T01:26:59.513Z,14.90
2023-02-15T01:29:44.908Z,15.90
2023-02-15T01:32:29.782Z,16.00
2023-02-15T01:35:15.031Z,15.10
2023-02-15T01:38:00.541Z,15.10
2023-02-15T01:40:45.863Z,15.10
2023-02-15T01:43:42.360Z,14.43
2023-02-15T01:46:36.095Z,14.27
2023-02-15T01:49:27.741Z,14.40
2023-02-15T01:52:16.890Z,14.93
2023-02-15T01:55:02.469Z,14.67
2023-02-15T01:57:47.948Z,14.90
2023-02-15T02:00:34.964Z,14.43
2023-02-15T02:03:36.768Z,14.87
2023-02-15T02:06:22.729Z,14.67
2023-02-15T02:09:09.207Z,14.87
2023-02-15T02:11:54.827Z,15.57
2023-02-15T02:14:41.701Z,15.37
2023-02-15T02:17:54.809Z,14.93
2023-02-15T02:21:18.965Z,15.13
2023-02-15T02:24:34.001Z,14.83
2023-02-15T02:27:29.864Z,14.43
2023-02-15T02:30:23.675Z,13.17
2023-02-15T02:33:26.287Z,14.00
2023-02-15T02:36:39.308Z,14.87
2023-02-15T02:39:38.620Z,15.63
2023-02-15T02:42:44.336Z,14.93
2023-02-15T02:45:31.990Z,15.37
2023-02-15T02:48:23.067Z,14.83
2023-02-15T02:51:08.533Z,15.27
2023-02-15T02:53:57.417Z,15.17
2023-02-15T02:56:49.339Z,15.53
2023-02-15T02:59:42.333Z,15.20
2023-02-15T03:02:35.498Z,15.43
2023-02-15T03:05:25.794Z,14.67
2023-02-15T03:08:15.116Z,15.90
2023-02-15T03:11:02.579Z,14.70
2023-02-15T03:13:49.778Z,14.90
2023-02-15T03:16:35.643Z,14.70
2023-02-15T03:19:28.920Z,15.70
2023-02-15T03:22:25.819Z,15.30
2023-02-15T03:25:26.066Z,16.03
2023-02-15T03:28:16.351Z,15.10
2023-02-15T03:31:05.987Z,15.27
2023-02-15T03:33:58.891Z,15.80
2023-02-15T03:37:10.958Z,15.37
2023-02-15T03:40:13.210Z,15.43
2023-02-15T03:43:22.790Z,15.50
2023-02-15T03:46:34.497Z,15.63
2023-02-15T03:49:35.742Z,15.13
2023-02-15T03:52:24.265Z,15.83
2023-02-15T03:55:09.757Z,15.07
2023-02-15T03:57:55.036Z,15.20
2023-02-15T04:00:48.650Z,15.17
2023-02-15T04:04:17.293Z,14.73
2023-02-15T04:07:04.519Z,15.50
2023-02-15T04:09:50.115Z,15.77
2023-02-15T04:12:35.587Z,15.90
2023-02-15T04:15:20.912Z,16.10
2023-02-15T04:18:06.480Z,15.50
2023-02-15T04:20:51.569Z,16.80
2023-02-15T04:23:37.101Z,16.53
2023-02-15T04:26:22.387Z,16.47
2023-02-15T04:29:07.884Z,15.97
2023-02-15T04:31:54.878Z,15.63
2023-02-15T04:34:39.954Z,16.57
2023-02-15T04:37:25.320Z,15.40
2023-02-15T04:40:13.095Z,16.17
2023-02-15T04:42:58.393Z,15.93
2023-02-15T04:45:49.094Z,16.30
2023-02-15T04:48:34.331Z,16.63
2023-02-15T04:51:20.181Z,16.80
2023-02-15T04:54:05.679Z,17.20
2023-02-15T04:56:50.783Z,16.40
2023-02-15T04:59:36.299Z,16.67
2023-02-15T05:02:21.547Z,15.47
2023-02-15T05:05:07.080Z,15.87
2023-02-15T05:07:52.397Z,17.27
2023-02-15T05:10:37.678Z,17.37
2023-02-15T05:13:23.009Z,16.93
2023-02-15T05:16:08.005Z,17.97
2023-02-15T05:18:52.833Z,17.07
2023-02-15T05:21:38.546Z,16.63
2023-02-15T05:24:24.010Z,15.57
2023-02-15T05:27:12.137Z,15.87
2023-02-15T05:29:59.102Z,16.57
2023-02-15T05:32:44.460Z,17.03
2023-02-15T05:35:29.713Z,17.03
2023-02-15T05:38:15.230Z,16.60
2023-02-15T05:41:00.869Z,16.80
2023-02-15T05:43:46.266Z,17.27
2023-02-15T05:46:32.745Z,17.23
2023-02-15T05:49:18.004Z,17.00
2023-02-15T05:52:04.912Z,17.87
2023-02-15T05:54:49.806Z,18.30
2023-02-15T05:57:34.746Z,18.70
2023-02-15T06:00:19.800Z,17.47
2023-02-15T06:03:05.123Z,16.93
2023-02-15T06:05:50.530Z,17.70
2023-02-15T06:08:37.127Z,17.60
2023-02-15T06:11:22.534Z,17.40
2023-02-15T06:14:07.500Z,17.40
2023-02-15T06:16:53.023Z,17.20
2023-02-15T06:19:38.337Z,16.23
2023-02-15T06:22:23.386Z,16.97
2023-02-15T06:25:08.216Z,16.60
2023-02-15T06:27:53.131Z,16.83
2023-02-15T06:30:38.539Z,16.50
2023-02-15T06:33:24.208Z,16.73
2023-02-15T06:36:09.683Z,16.17
2023-02-15T06:38:55.720Z,17.43
2023-02-15T06:41:41.046Z,16.87
2023-02-15T06:44:26.607Z,17.00
2023-02-15T06:47:12.589Z,17.87
2023-02-15T06:49:58.007Z,17.00
2023-02-15T06:52:43.274Z,16.67
2023-02-15T06:55:28.814Z,17.00
2023-02-15T06:58:14.134Z,18.07
2023-02-15T07:01:00.158Z,17.97
2023-02-15T07:03:45.280Z,16.83
2023-02-15T07:06:34.087Z,17.80
2023-02-15T07:09:19.357Z,18.20
2023-02-15T07:12:05.234Z,17.27
2023-02-15T07:14:50.635Z,17.53
2023-02-15T07:17:37.512Z,17.97
2023-02-15T07:20:24.224Z,17.83
2023-02-15T07:23:09.480Z,18.37
2023-02-15T07:26:01.693Z,18.07
2023-02-15T07:28:46.809Z,17.80
2023-02-15T07:31:32.405Z,17.57
2023-02-15T07:34:18.010Z,17.37
2023-02-15T07:37:03.241Z,18.67
2023-02-15T07:39:48.084Z,18.77
2023-02-15T07:42:33.462Z,18.30
2023-02-15T07:45:18.764Z,18.13
2023-02-15T07:48:04.804Z,16.73
2023-02-15T07:50:50.149Z,17.60
2023-02-15T07:53:36.714Z,18.90
2023-02-15T07:56:21.927Z,29.50
2023-02-15T07:59:07.214Z,18.10
2023-02-15T08:01:52.702Z,17.67
2023-02-15T08:04:38.103Z,16.87
2023-02-15T08:07:22.943Z,18.03
2023-02-15T08:10:08.395Z,17.70
2023-02-15T08:12:53.449Z,17.37
2023-02-15T08:15:38.791Z,17.23
2023-02-15T08:18:23.707Z,16.50
2023-02-15T08:21:09.140Z,16.57
2023-02-15T08:23:55.913Z,16.40
2023-02-15T08:26:42.497Z,15.57
2023-02-15T08:29:29.377Z,14.93
2023-02-15T08:32:15.088Z,15.03
2023-02-15T08:35:00.456Z,15.13
2023-02-15T08:38:07.231Z,15.17
2023-02-15T08:40:52.618Z,16.00
2023-02-15T08:43:38.332Z,14.97
2023-02-15T08:46:25.748Z,14.67
2023-02-15T08:49:14.501Z,15.17
2023-02-15T08:51:59.983Z,15.40
2023-02-15T08:54:45.314Z,15.67
2023-02-15T08:57:30.821Z,14.83
2023-02-15T09:00:16.150Z,15.20
2023-02-15T09:03:01.638Z,15.43
2023-02-15T09:05:47.083Z,16.27
2023-02-15T09:08:32.043Z,14.97
2023-02-15T09:11:21.291Z,14.50
2023-02-15T09:14:15.452Z,14.73
2023-02-15T09:17:00.628Z,15.03
2023-02-15T09:19:45.848Z,15.33
2023-02-15T09:22:31.317Z,14.70
2023-02-15T09:25:16.571Z,14.83
2023-02-15T09:28:02.073Z,14.90
2023-02-15T09:30:47.600Z,14.47
2023-02-15T09:33:34.556Z,14.47
2023-02-15T09:36:21.416Z,14.60
2023-02-15T09:39:14.706Z,15.03
2023-02-15T09:42:18.846Z,13.93
2023-02-15T09:45:19.493Z,14.30
2023-02-15T09:48:17.300Z,14.87
2023-02-15T09:51:45.048Z,14.47
2023-02-15T09:55:09.844Z,14.23
2023-02-15T09:58:23.229Z,13.83
2023-02-15T10:01:14.574Z,13.53
2023-02-15T10:04:12.183Z,13.57
2023-02-15T10:07:15.982Z,13.77
2023-02-15T10:10:32.046Z,13.80
2023-02-15T10:13:48.223Z,17.57
2023-02-15T10:16:58.411Z,13.93
2023-02-15T10:20:00.990Z,13.73
2023-02-15T10:22:52.138Z,13.40
2023-02-15T10:25:52.837Z,13.90
2023-02-15T10:28:49.691Z,13.70
2023-02-15T10:31:50.400Z,13.80
2023-02-15T10:34:44.265Z,14.20
2023-02-15T10:37:44.721Z,13.07
2023-02-15T10:41:03.048Z,13.23
2023-02-15T10:44:02.833Z,13.60
2023-02-15T10:47:12.754Z,14.40
2023-02-15T10:50:22.716Z,13.00
2023-02-15T10:53:13.966Z,14.10
2023-02-15T10:56:21.631Z,14.02
2023-02-15T10:59:28.929Z,13.52
2023-02-15T11:02:26.503Z,14.60
2023-02-15T11:05:40.702Z,14.18
2023-02-15T11:08:30.561Z,14.20
2023-02-15T11:11:40.817Z,14.40
2023-02-15T11:14:46.383Z,14.18
2023-02-15T11:17:47.747Z,13.90
2023-02-15T11:20:57.878Z,14.57
2023-02-15T11:23:45.846Z,14.38
2023-02-15T11:26:37.390Z,15.32
2023-02-15T11:29:33.055Z,14.43
2023-02-15T11:32:27.051Z,14.82
2023-02-15T11:35:12.002Z,15.10
2023-02-15T11:38:16.092Z,14.65
2023-02-15T11:41:06.494Z,15.82
2023-02-15T11:44:00.340Z,15.82
2023-02-15T11:46:46.020Z,16.80
2023-02-15T11:49:33.764Z,16.08
2023-02-15T11:52:19.680Z,17.02
2023-02-15T11:55:15.075Z,16.42
2023-02-15T11:58:06.144Z,16.85
2023-02-15T12:01:17.526Z,17.05
2023-02-15T12:04:09.348Z,16.85
2023-02-15T12:07:10.218Z,16.10
2023-02-15T12:10:16.253Z,16.73
2023-02-15T12:13:16.853Z,17.30
2023-02-15T12:16:11.119Z,19.20
2023-02-15T12:18:59.634Z,18.33
2023-02-15T12:21:49.930Z,17.42
2023-02-15T12:24:48.461Z,17.10
2023-02-15T12:27:36.684Z,17.95
2023-02-15T12:30:31.141Z,17.77
2023-02-15T12:33:24.635Z,18.52
2023-02-15T12:36:16.207Z,18.70
2023-02-15T12:39:08.651Z,18.98
2023-02-15T12:41:57.056Z,18.92
2023-02-15T12:44:56.869Z,18.50
2023-02-15T12:47:42.388Z,19.08
2023-02-15T12:50:27.345Z,18.88
2023-02-15T12:53:30.930Z,19.17
2023-02-15T12:56:27.571Z,19.27
2023-02-15T12:59:15.129Z,20.13
2023-02-15T13:02:13.134Z,18.30
2023-02-15T13:05:08.956Z,18.38
2023-02-15T13:08:00.533Z,18.35
2023-02-15T13:11:08.051Z,19.42
2023-02-15T13:13:59.581Z,19.15
2023-02-15T13:16:46.954Z,19.58
2023-02-15T13:19:37.800Z,18.52
2023-02-15T13:22:30.487Z,19.83
2023-02-15T13:25:23.967Z,19.92
2023-02-15T13:28:15.690Z,20.77
2023-02-15T13:31:01.161Z,20.08
2023-02-15T13:34:02.669Z,20.25
2023-02-15T13:37:03.060Z,20.75
2023-02-15T13:39:50.888Z,21.52
2023-02-15T13:42:57.477Z,20.70
2023-02-15T13:45:55.948Z,21.05
2023-02-15T13:48:53.034Z,20.92
2023-02-15T13:51:53.160Z,20.08
2023-02-15T13:55:16.751Z,19.83
2023-02-15T13:58:20.622Z,18.70
2023-02-15T14:01:17.935Z,20.48
2023-02-15T14:04:24.670Z,18.67
2023-02-15T14:07:25.195Z,18.50
2023-02-15T14:10:21.920Z,17.73
2023-02-15T14:13:41.500Z,18.08
2023-02-15T14:17:06.022Z,16.92
2023-02-15T14:19:58.196Z,17.10
2023-02-15T14:22:49.928Z,16.83
2023-02-15T14:25:51.946Z,17.38
2023-02-15T14:28:49.232Z,16.65
2023-02-15T14:31:45.464Z,16.85
2023-02-15T14:35:02.631Z,16.70
2023-02-15T14:38:10.728Z,17.20
2023-02-15T14:41:01.095Z,15.88
2023-02-15T14:44:29.382Z,16.70
2023-02-15T14:47:23.845Z,17.95
2023-02-15T14:50:31.061Z,17.58
2023-02-15T14:53:17.082Z,16.48
2023-02-15T14:56:11.570Z,15.55
2023-02-15T14:59:00.269Z,15.95
2023-02-15T15:01:56.594Z,15.88
2023-02-15T15:05:03.286Z,26.10
2023-02-15T15:07:52.964Z,16.15
2023-02-15T15:10:44.584Z,17.05
2023-02-15T15:13:32.941Z,16.40
2023-02-15T15:16:30.854Z,16.23
2023-02-15T15:19:51.905Z,15.73
2023-02-15T15:22:37.942Z,15.30
2023-02-15T15:26:12.406Z,15.95
2023-02-15T15:29:00.291Z,15.95
2023-02-15T15:31:52.392Z,15.07
2023-02-15T15:35:01.728Z,15.68
2023-02-15T15:38:25.582Z,15.65
2023-02-15T15:41:40.937Z,16.17
2023-02-15T15:45:05.494Z,14.73
2023-02-15T15:48:07.705Z,14.82
2023-02-15T15:50:54.441Z,15.68
2023-02-15T15:53:44.785Z,15.23
2023-02-15T15:56:34.385Z,15.75
2023-02-15T15:59:25.881Z,16.05
2023-02-15T16:02:17.533Z,15.98
2023-02-15T16:05:09.965Z,15.52
2023-02-15T16:07:55.192Z,17.05
2023-02-15T16:10:41.317Z,16.30
2023-02-15T16:13:27.491Z,15.65
2023-02-15T16:16:20.256Z,16.95
2023-02-15T16:19:05.703Z,15.98
2023-02-15T16:21:51.188Z,16.98
2023-02-15T16:25:11.827Z,16.13
2023-02-15T16:27:57.082Z,16.90
2023-02-15T16:30:42.351Z,17.50
2023-02-15T16:33:36.938Z,16.77
2023-02-15T16:36:30.004Z,17.92
2023-02-15T16:39:20.978Z,17.33
2023-02-15T16:42:06.547Z,17.67
2023-02-15T16:45:14.802Z,17.55
2023-02-15T16:48:05.606Z,19.33
2023-02-15T16:50:55.674Z,17.30
2023-02-15T16:53:40.714Z,18.45
2023-02-15T16:56:28.817Z,17.55
2023-02-15T16:59:35.072Z,17.38
2023-02-15T17:02:49.437Z,19.13
2023-02-15T17:05:53.640Z,17.77
2023-02-15T17:08:45.727Z,18.40
2023-02-15T17:11:41.904Z,18.95
2023-02-15T17:14:32.301Z,18.90
2023-02-15T17:17:17.337Z,18.63
2023-02-15T17:20:03.130Z,17.77
2023-02-15T17:22:48.283Z,18.20
2023-02-15T17:25:39.791Z,17.02
2023-02-15T17:28:28.755Z,18.73
2023-02-15T17:31:16.282Z,19.05
2023-02-15T17:34:02.627Z,17.55
2023-02-15T17:36:58.894Z,18.02
2023-02-15T17:39:43.903Z,18.75
2023-02-15T17:42:29.284Z,17.45
2023-02-15T17:45:15.575Z,16.80
2023-02-15T17:48:04.476Z,16.83
2023-02-15T17:50:49.974Z,16.67
2023-02-15T17:53:35.706Z,16.77
2023-02-15T17:56:20.888Z,16.35
2023-02-15T17:59:06.405Z,16.40
2023-02-15T18:01:51.577Z,15.33
2023-02-15T18:04:37.520Z,14.53
2023-02-15T18:07:23.353Z,15.33
2023-02-15T18:10:18.508Z,15.40
2023-02-15T18:13:03.978Z,16.23
2023-02-15T18:15:48.963Z,16.27
2023-02-15T18:18:34.133Z,16.03
2023-02-15T18:21:19.340Z,16.57
2023-02-15T18:24:04.164Z,16.20
2023-02-15T18:26:50.499Z,16.53
2023-02-15T18:29:35.831Z,16.43
2023-02-15T18:32:35.364Z,16.07
2023-02-15T18:35:22.854Z,15.97
2023-02-15T18:38:09.765Z,15.60
2023-02-15T18:40:55.007Z,15.97
2023-02-15T18:43:40.005Z,14.87
2023-02-15T18:46:25.399Z,15.03
2023-02-15T18:49:10.845Z,14.87
2023-02-15T18:51:55.902Z,14.47
2023-02-15T18:54:41.820Z,14.77
2023-02-15T18:57:28.155Z,15.17
2023-02-15T19:00:19.016Z,15.40
2023-02-15T19:03:04.277Z,16.10
2023-02-15T19:05:49.665Z,15.90
2023-02-15T19:08:35.060Z,15.73
2023-02-15T19:11:22.652Z,15.87
2023-02-15T19:14:32.359Z,15.23
2023-02-15T19:17:19.962Z,15.50
2023-02-15T19:20:05.936Z,15.67
2023-02-15T19:22:53.042Z,15.73
2023-02-15T19:25:40.454Z,16.63
2023-02-15T19:28:33.313Z,15.77
2023-02-15T19:31:18.649Z,16.33
2023-02-15T19:34:15.649Z,16.60
2023-02-15T19:37:01.042Z,15.90
2023-02-15T19:39:45.950Z,17.30
2023-02-15T19:42:31.091Z,16.37
2023-02-15T19:45:18.874Z,16.73
2023-02-15T19:48:06.383Z,17.83
2023-02-15T19:50:52.234Z,17.17
2023-02-15T19:53:37.114Z,17.70
2023-02-15T19:56:23.893Z,17.17
2023-02-15T19:59:23.874Z,17.50
2023-02-15T20:02:14.402Z,17.33
2023-02-15T20:04:59.633Z,17.80
2023-02-15T20:07:48.149Z,17.70
2023-02-15T20:10:33.844Z,18.13
2023-02-15T20:13:20.608Z,17.70
2023-02-15T20:16:06.833Z,18.30
2023-02-15T20:18:51.977Z,18.83
2023-02-15T20:21:37.874Z,18.13
2023-02-15T20:24:26.920Z,19.03
2023-02-15T20:27:17.029Z,19.60
2023-02-15T20:30:02.632Z,20.03
2023-02-15T20:32:47.606Z,21.33
2023-02-15T20:35:33.100Z,22.37
2023-02-15T20:38:30.963Z,21.63
2023-02-15T20:41:19.390Z,20.53
2023-02-15T20:44:21.508Z,21.13
2023-02-15T20:47:07.039Z,22.03
2023-02-15T20:49:51.733Z,21.97
2023-02-15T20:52:37.196Z,20.90
2023-02-15T20:55:25.542Z,22.17
2023-02-15T20:58:28.923Z,20.00
2023-02-15T21:01:14.411Z,21.33
2023-02-15T21:03:59.662Z,20.10
2023-02-15T21:06:45.293Z,20.47
2023-02-15T21:09:30.696Z,20.63
2023-02-15T21:12:18.598Z,21.17
2023-02-15T21:15:25.023Z,19.90
2023-02-15T21:18:24.999Z,20.70
2023-02-15T21:21:14.623Z,21.00
2023-02-15T21:23:59.696Z,20.50
2023-02-15T21:26:46.714Z,20.70
2023-02-15T21:29:31.854Z,19.23
2023-02-15T21:32:16.794Z,29.47
2023-02-15T21:35:02.282Z,21.30
2023-02-15T21:37:50.262Z,20.43
2023-02-15T21:40:35.199Z,21.20
2023-02-15T21:43:24.430Z,20.27
2023-02-15T21:46:15.612Z,20.60
2023-02-15T21:49:01.515Z,20.90
2023-02-15T21:51:46.863Z,20.40
2023-02-15T21:54:31.790Z,19.63
2023-02-15T21:57:17.437Z,20.43
2023-02-15T22:00:02.724Z,20.00
2023-02-15T22:02:51.258Z,21.70
2023-02-15T22:05:36.088Z,21.13
2023-02-15T22:08:21.055Z,21.03
2023-02-15T22:11:15.150Z,21.97
2023-02-15T22:14:00.288Z,21.80
2023-02-15T22:16:45.204Z,22.80
2023-02-15T22:19:30.147Z,22.23
2023-02-15T22:22:16.055Z,21.43
2023-02-15T22:25:01.442Z,22.23
2023-02-15T22:27:48.092Z,22.07
2023-02-15T22:30:36.693Z,22.47
2023-02-15T22:33:25.291Z,21.90
2023-02-15T22:36:21.952Z,23.13
2023-02-15T22:39:07.184Z,24.30
2023-02-15T22:41:53.265Z,22.40
2023-02-15T22:44:38.383Z,22.43
2023-02-15T22:47:29.673Z,24.47
2023-02-15T22:50:18.991Z,23.73
2023-02-15T22:53:04.199Z,24.27
2023-02-15T22:55:50.053Z,22.90
2023-02-15T22:58:35.568Z,22.57
2023-02-15T23:01:29.526Z,22.73
2023-02-15T23:04:21.161Z,22.90
2023-02-15T23:07:12.885Z,21.87
2023-02-15T23:09:57.727Z,23.30
2023-02-15T23:12:43.000Z,23.33
2023-02-15T23:15:28.256Z,23.73
2023-02-15T23:18:21.194Z,23.47
2023-02-15T23:21:15.314Z,24.63
2023-02-15T23:24:20.244Z,24.03
2023-02-15T23:27:05.799Z,24.23
2023-02-15T23:29:50.831Z,25.00
2023-02-15T23:32:36.272Z,23.93
2023-02-15T23:35:21.246Z,24.73
2023-02-15T23:38:19.160Z,24.67
2023-02-15T23:41:04.485Z,25.10
2023-02-15T23:43:58.126Z,25.77
2023-02-15T23:46:46.579Z,25.77
2023-02-15T23:49:31.707Z,23.90
2023-02-15T23:52:16.682Z,24.47
2023-02-15T23:55:01.969Z,24.87
2023-02-15T23:57:47.751Z,24.30
